sensor_id;sensor_type;location;lat;lon;timestamp;temperature;humidity
20057;DHT22;10189;49.546;7.906;2023-03-11T00:00:35;-0.40;74.60
20057;DHT22;10189;49.546;7.906;2023-03-11T00:03:04;-0.30;75.30
20057;DHT22;10189;49.546;7.906;2023-03-11T00:05:37;-0.30;74.00
20057;DHT22;10189;49.546;7.906;2023-03-11T00:08:08;-0.30;73.50
20057;DHT22;10189;49.546;7.906;2023-03-11T00:10:39;-0.30;74.40
20057;DHT22;10189;49.546;7.906;2023-03-11T00:13:09;-0.30;73.30
20057;DHT22;10189;49.546;7.906;2023-03-11T00:15:36;-0.40;72.60
20057;DHT22;10189;49.546;7.906;2023-03-11T00:18:03;-0.40;73.20
20057;DHT22;10189;49.546;7.906;2023-03-11T00:20:35;-0.40;74.00
20057;DHT22;10189;49.546;7.906;2023-03-11T00:23:04;-0.40;73.20
20057;DHT22;10189;49.546;7.906;2023-03-11T00:25:33;-0.40;73.90
20057;DHT22;10189;49.546;7.906;2023-03-11T00:28:01;-0.40;73.30
20057;DHT22;10189;49.546;7.906;2023-03-11T00:30:28;-0.40;73.30
20057;DHT22;10189;49.546;7.906;2023-03-11T00:32:56;-0.40;73.60
20057;DHT22;10189;49.546;7.906;2023-03-11T00:35:26;-0.50;74.00
20057;DHT22;10189;49.546;7.906;2023-03-11T00:37:57;-0.50;73.70
20057;DHT22;10189;49.546;7.906;2023-03-11T00:40:26;-0.60;74.20
20057;DHT22;10189;49.546;7.906;2023-03-11T00:42:53;-0.70;74.50
20057;DHT22;10189;49.546;7.906;2023-03-11T00:45:20;-0.80;73.90
20057;DHT22;10189;49.546;7.906;2023-03-11T00:47:46;-0.80;74.10
20057;DHT22;10189;49.546;7.906;2023-03-11T00:50:18;-0.80;74.00
20057;DHT22;10189;49.546;7.906;2023-03-11T00:52:50;-0.90;74.10
20057;DHT22;10189;49.546;7.906;2023-03-11T00:55:21;-0.90;74.60
20057;DHT22;10189;49.546;7.906;2023-03-11T00:57:57;-1.00;74.60
20057;DHT22;10189;49.546;7.906;2023-03-11T01:00:29;-1.00;76.50
20057;DHT22;10189;49.546;7.906;2023-03-11T01:02:56;-1.10;75.50
20057;DHT22;10189;49.546;7.906;2023-03-11T01:05:26;-1.10;75.60
20057;DHT22;10189;49.546;7.906;2023-03-11T01:07:54;-1.10;75.80
20057;DHT22;10189;49.546;7.906;2023-03-11T01:10:20;-1.20;75.20
20057;DHT22;10189;49.546;7.906;2023-03-11T01:12:46;-1.20;75.50
20057;DHT22;10189;49.546;7.906;2023-03-11T01:15:23;-1.20;74.80
20057;DHT22;10189;49.546;7.906;2023-03-11T01:17:55;-1.20;74.80
20057;DHT22;10189;49.546;7.906;2023-03-11T01:20:21;-1.20;75.10
20057;DHT22;10189;49.546;7.906;2023-03-11T01:22:47;-1.30;75.40
20057;DHT22;10189;49.546;7.906;2023-03-11T01:25:16;-1.30;74.90
20057;DHT22;10189;49.546;7.906;2023-03-11T01:27:43;-1.30;74.90
20057;DHT22;10189;49.546;7.906;2023-03-11T01:30:13;-1.30;75.80
20057;DHT22;10189;49.546;7.906;2023-03-11T01:32:44;-1.40;75.60
20057;DHT22;10189;49.546;7.906;2023-03-11T01:35:12;-1.40;76.00
20057;DHT22;10189;49.546;7.906;2023-03-11T01:37:40;-1.50;76.10
20057;DHT22;10189;49.546;7.906;2023-03-11T01:40:08;-1.50;76.90
20057;DHT22;10189;49.546;7.906;2023-03-11T01:42:41;-1.60;77.80
20057;DHT22;10189;49.546;7.906;2023-03-11T01:48:30;-1.70;77.60
20057;DHT22;10189;49.546;7.906;2023-03-11T01:50:56;-1.70;78.50
20057;DHT22;10189;49.546;7.906;2023-03-11T01:53:23;-1.70;77.30
20057;DHT22;10189;49.546;7.906;2023-03-11T01:55:50;-1.60;77.00
20057;DHT22;10189;49.546;7.906;2023-03-11T01:58:24;-1.60;77.20
20057;DHT22;10189;49.546;7.906;2023-03-11T02:00:54;-1.60;77.00
20057;DHT22;10189;49.546;7.906;2023-03-11T02:03:26;-1.60;77.10
20057;DHT22;10189;49.546;7.906;2023-03-11T02:05:56;-1.60;78.00
20057;DHT22;10189;49.546;7.906;2023-03-11T02:08:27;-1.60;77.30
20057;DHT22;10189;49.546;7.906;2023-03-11T02:10:56;-1.60;77.60
20057;DHT22;10189;49.546;7.906;2023-03-11T02:13:22;-1.60;77.40
20057;DHT22;10189;49.546;7.906;2023-03-11T02:15:48;-1.60;78.10
20057;DHT22;10189;49.546;7.906;2023-03-11T02:18:16;-1.70;78.70
20057;DHT22;10189;49.546;7.906;2023-03-11T02:24:42;-1.70;79.10
20057;DHT22;10189;49.546;7.906;2023-03-11T02:27:11;-1.70;79.70
20057;DHT22;10189;49.546;7.906;2023-03-11T02:29:42;-1.70;79.70
20057;DHT22;10189;49.546;7.906;2023-03-11T02:32:11;-1.60;79.70
20057;DHT22;10189;49.546;7.906;2023-03-11T02:34:41;-1.50;79.70
20057;DHT22;10189;49.546;7.906;2023-03-11T02:37:10;-1.50;78.20
20057;DHT22;10189;49.546;7.906;2023-03-11T02:39:45;-1.40;77.60
20057;DHT22;10189;49.546;7.906;2023-03-11T02:45:07;-1.40;78.00
20057;DHT22;10189;49.546;7.906;2023-03-11T02:47:38;-1.50;78.20
20057;DHT22;10189;49.546;7.906;2023-03-11T02:50:08;-1.50;78.10
20057;DHT22;10189;49.546;7.906;2023-03-11T02:52:37;-1.60;78.40
20057;DHT22;10189;49.546;7.906;2023-03-11T02:55:04;-1.60;79.10
20057;DHT22;10189;49.546;7.906;2023-03-11T02:57:32;-1.70;79.10
20057;DHT22;10189;49.546;7.906;2023-03-11T02:59:59;-1.70;78.90
20057;DHT22;10189;49.546;7.906;2023-03-11T03:02:31;-1.70;79.30
20057;DHT22;10189;49.546;7.906;2023-03-11T03:04:57;-1.70;79.30
20057;DHT22;10189;49.546;7.906;2023-03-11T03:07:23;-1.60;78.90
20057;DHT22;10189;49.546;7.906;2023-03-11T03:09:49;-1.70;79.70
20057;DHT22;10189;49.546;7.906;2023-03-11T03:12:15;-1.60;80.10
20057;DHT22;10189;49.546;7.906;2023-03-11T03:14:41;-1.50;79.20
20057;DHT22;10189;49.546;7.906;2023-03-11T03:17:08;-1.50;78.30
20057;DHT22;10189;49.546;7.906;2023-03-11T03:19:34;-1.50;78.20
20057;DHT22;10189;49.546;7.906;2023-03-11T03:22:00;-1.50;78.60
20057;DHT22;10189;49.546;7.906;2023-03-11T03:24:26;-1.60;78.90
20057;DHT22;10189;49.546;7.906;2023-03-11T03:26:52;-1.60;78.60
20057;DHT22;10189;49.546;7.906;2023-03-11T03:29:18;-1.60;79.60
20057;DHT22;10189;49.546;7.906;2023-03-11T03:31:46;-1.70;79.60
20057;DHT22;10189;49.546;7.906;2023-03-11T03:34:13;-1.60;79.30
20057;DHT22;10189;49.546;7.906;2023-03-11T03:36:39;-1.70;80.70
20057;DHT22;10189;49.546;7.906;2023-03-11T03:39:05;-1.70;79.60
20057;DHT22;10189;49.546;7.906;2023-03-11T03:41:35;-1.70;79.40
20057;DHT22;10189;49.546;7.906;2023-03-11T03:44:02;-1.70;79.90
20057;DHT22;10189;49.546;7.906;2023-03-11T03:46:29;-1.60;79.90
20057;DHT22;10189;49.546;7.906;2023-03-11T03:48:58;-1.60;79.80
20057;DHT22;10189;49.546;7.906;2023-03-11T03:51:24;-1.50;79.40
20057;DHT22;10189;49.546;7.906;2023-03-11T03:54:00;-1.60;79.00
20057;DHT22;10189;49.546;7.906;2023-03-11T03:56:26;-1.60;78.90
20057;DHT22;10189;49.546;7.906;2023-03-11T03:58:52;-1.50;79.80
20057;DHT22;10189;49.546;7.906;2023-03-11T04:01:20;-1.50;79.70
20057;DHT22;10189;49.546;7.906;2023-03-11T04:03:46;-1.50;79.40
20057;DHT22;10189;49.546;7.906;2023-03-11T04:06:17;-1.50;79.00
20057;DHT22;10189;49.546;7.906;2023-03-11T04:08:47;-1.40;78.50
20057;DHT22;10189;49.546;7.906;2023-03-11T04:11:14;-1.40;78.50
20057;DHT22;10189;49.546;7.906;2023-03-11T04:13:40;-1.50;78.50
20057;DHT22;10189;49.546;7.906;2023-03-11T04:16:16;-1.50;78.60
20057;DHT22;10189;49.546;7.906;2023-03-11T04:18:44;-1.60;78.80
20057;DHT22;10189;49.546;7.906;2023-03-11T04:21:10;-1.70;79.00
20057;DHT22;10189;49.546;7.906;2023-03-11T04:23:36;-1.70;80.10
20057;DHT22;10189;49.546;7.906;2023-03-11T04:26:02;-1.70;79.50
20057;DHT22;10189;49.546;7.906;2023-03-11T04:28:29;-1.80;79.70
20057;DHT22;10189;49.546;7.906;2023-03-11T04:30:55;-1.70;79.90
20057;DHT22;10189;49.546;7.906;2023-03-11T04:33:21;-1.80;79.50
20057;DHT22;10189;49.546;7.906;2023-03-11T04:35:48;-1.80;81.10
20057;DHT22;10189;49.546;7.906;2023-03-11T04:38:16;-1.80;81.00
20057;DHT22;10189;49.546;7.906;2023-03-11T04:40:42;-1.80;80.30
20057;DHT22;10189;49.546;7.906;2023-03-11T04:43:08;-1.90;81.20
20057;DHT22;10189;49.546;7.906;2023-03-11T04:45:37;-2.00;82.10
20057;DHT22;10189;49.546;7.906;2023-03-11T04:48:04;-2.10;83.40
20057;DHT22;10189;49.546;7.906;2023-03-11T04:50:31;-2.20;83.30
20057;DHT22;10189;49.546;7.906;2023-03-11T04:52:57;-2.30;83.00
20057;DHT22;10189;49.546;7.906;2023-03-11T04:55:24;-2.40;84.40
20057;DHT22;10189;49.546;7.906;2023-03-11T04:57:50;-2.50;85.70
20057;DHT22;10189;49.546;7.906;2023-03-11T05:00:17;-2.60;86.90
20057;DHT22;10189;49.546;7.906;2023-03-11T05:02:50;-2.60;86.90
20057;DHT22;10189;49.546;7.906;2023-03-11T05:05:16;-2.70;85.60
20057;DHT22;10189;49.546;7.906;2023-03-11T05:07:46;-2.70;85.80
20057;DHT22;10189;49.546;7.906;2023-03-11T05:10:13;-2.80;87.30
20057;DHT22;10189;49.546;7.906;2023-03-11T05:12:39;-2.80;87.40
20057;DHT22;10189;49.546;7.906;2023-03-11T05:15:06;-2.80;86.90
20057;DHT22;10189;49.546;7.906;2023-03-11T05:17:33;-2.80;88.20
20057;DHT22;10189;49.546;7.906;2023-03-11T05:19:59;-2.80;88.70
20057;DHT22;10189;49.546;7.906;2023-03-11T05:22:30;-2.90;89.50
20057;DHT22;10189;49.546;7.906;2023-03-11T05:24:57;-3.00;89.90
20057;DHT22;10189;49.546;7.906;2023-03-11T05:27:23;-3.00;90.20
20057;DHT22;10189;49.546;7.906;2023-03-11T05:29:53;-3.10;91.20
20057;DHT22;10189;49.546;7.906;2023-03-11T05:32:20;-3.20;92.50
20057;DHT22;10189;49.546;7.906;2023-03-11T05:34:47;-3.20;92.80
20057;DHT22;10189;49.546;7.906;2023-03-11T05:37:15;-3.20;93.10
20057;DHT22;10189;49.546;7.906;2023-03-11T05:39:42;-3.20;91.40
20057;DHT22;10189;49.546;7.906;2023-03-11T05:42:09;-3.20;91.90
20057;DHT22;10189;49.546;7.906;2023-03-11T05:44:35;-3.20;91.80
20057;DHT22;10189;49.546;7.906;2023-03-11T05:47:01;-3.20;92.00
20057;DHT22;10189;49.546;7.906;2023-03-11T05:49:28;-3.30;92.90
20057;DHT22;10189;49.546;7.906;2023-03-11T05:51:54;-3.30;93.40
20057;DHT22;10189;49.546;7.906;2023-03-11T05:54:22;-3.30;93.70
20057;DHT22;10189;49.546;7.906;2023-03-11T05:56:50;-3.40;93.80
20057;DHT22;10189;49.546;7.906;2023-03-11T05:59:17;-3.40;94.00
20057;DHT22;10189;49.546;7.906;2023-03-11T06:01:46;-3.40;94.20
20057;DHT22;10189;49.546;7.906;2023-03-11T06:04:12;-3.50;94.60
20057;DHT22;10189;49.546;7.906;2023-03-11T06:06:39;-3.60;95.00
20057;DHT22;10189;49.546;7.906;2023-03-11T06:09:08;-3.60;95.40
20057;DHT22;10189;49.546;7.906;2023-03-11T06:11:37;-3.60;95.70
20057;DHT22;10189;49.546;7.906;2023-03-11T06:14:03;-3.60;96.30
20057;DHT22;10189;49.546;7.906;2023-03-11T06:16:29;-3.70;96.70
20057;DHT22;10189;49.546;7.906;2023-03-11T06:18:58;-3.70;96.90
20057;DHT22;10189;49.546;7.906;2023-03-11T06:21:31;-3.70;97.30
20057;DHT22;10189;49.546;7.906;2023-03-11T06:23:57;-3.70;97.80
20057;DHT22;10189;49.546;7.906;2023-03-11T06:26:26;-3.70;97.90
20057;DHT22;10189;49.546;7.906;2023-03-11T06:28:52;-3.60;98.30
20057;DHT22;10189;49.546;7.906;2023-03-11T06:31:21;-3.60;98.50
20057;DHT22;10189;49.546;7.906;2023-03-11T06:33:50;-3.60;98.40
20057;DHT22;10189;49.546;7.906;2023-03-11T06:36:18;-3.50;98.60
20057;DHT22;10189;49.546;7.906;2023-03-11T06:38:45;-3.40;99.20
20057;DHT22;10189;49.546;7.906;2023-03-11T06:41:11;-3.20;99.30
20057;DHT22;10189;49.546;7.906;2023-03-11T06:43:38;-3.10;99.30
20057;DHT22;10189;49.546;7.906;2023-03-11T06:46:19;-2.90;98.40
20057;DHT22;10189;49.546;7.906;2023-03-11T06:48:48;-2.60;97.40
20057;DHT22;10189;49.546;7.906;2023-03-11T06:51:19;-2.50;96.30
20057;DHT22;10189;49.546;7.906;2023-03-11T06:53:52;-2.40;95.60
20057;DHT22;10189;49.546;7.906;2023-03-11T06:56:21;-2.20;94.50
20057;DHT22;10189;49.546;7.906;2023-03-11T06:58:53;-2.00;93.40
20057;DHT22;10189;49.546;7.906;2023-03-11T07:01:23;-1.90;92.40
20057;DHT22;10189;49.546;7.906;2023-03-11T07:03:51;-1.70;90.90
20057;DHT22;10189;49.546;7.906;2023-03-11T07:06:21;-1.60;91.30
20057;DHT22;10189;49.546;7.906;2023-03-11T07:08:52;-1.40;90.40
20057;DHT22;10189;49.546;7.906;2023-03-11T07:11:24;-1.30;89.00
20057;DHT22;10189;49.546;7.906;2023-03-11T07:13:55;-1.10;87.20
20057;DHT22;10189;49.546;7.906;2023-03-11T07:16:27;-1.00;84.60
20057;DHT22;10189;49.546;7.906;2023-03-11T07:19:00;-0.90;84.60
20057;DHT22;10189;49.546;7.906;2023-03-11T07:21:28;-0.80;80.50
20057;DHT22;10189;49.546;7.906;2023-03-11T07:23:58;-0.80;80.10
20057;DHT22;10189;49.546;7.906;2023-03-11T07:26:27;-0.70;79.60
20057;DHT22;10189;49.546;7.906;2023-03-11T07:28:55;-0.50;79.20
20057;DHT22;10189;49.546;7.906;2023-03-11T07:31:29;-0.40;78.90
20057;DHT22;10189;49.546;7.906;2023-03-11T07:33:59;-0.40;77.50
20057;DHT22;10189;49.546;7.906;2023-03-11T07:36:27;-0.40;77.20
20057;DHT22;10189;49.546;7.906;2023-03-11T07:39:02;-0.40;77.60
20057;DHT22;10189;49.546;7.906;2023-03-11T07:41:34;-0.30;77.60
20057;DHT22;10189;49.546;7.906;2023-03-11T07:44:01;-0.30;76.50
20057;DHT22;10189;49.546;7.906;2023-03-11T07:46:28;-0.20;77.00
20057;DHT22;10189;49.546;7.906;2023-03-11T07:48:55;-0.20;77.10
20057;DHT22;10189;49.546;7.906;2023-03-11T07:51:27;-0.10;75.80
20057;DHT22;10189;49.546;7.906;2023-03-11T07:53:56;-0.20;76.20
20057;DHT22;10189;49.546;7.906;2023-03-11T07:56:25;-0.30;75.30
20057;DHT22;10189;49.546;7.906;2023-03-11T07:58:53;-0.30;75.30
20057;DHT22;10189;49.546;7.906;2023-03-11T08:01:21;-0.30;76.00
20057;DHT22;10189;49.546;7.906;2023-03-11T08:03:49;-0.20;76.10
20057;DHT22;10189;49.546;7.906;2023-03-11T08:06:23;0.00;77.20
20057;DHT22;10189;49.546;7.906;2023-03-11T08:08:51;0.00;74.30
20057;DHT22;10189;49.546;7.906;2023-03-11T08:11:18;-0.10;73.90
20057;DHT22;10189;49.546;7.906;2023-03-11T08:13:45;0.00;74.10
20057;DHT22;10189;49.546;7.906;2023-03-11T08:16:14;0.10;76.20
20057;DHT22;10189;49.546;7.906;2023-03-11T08:18:41;0.30;73.20
20057;DHT22;10189;49.546;7.906;2023-03-11T08:21:13;0.50;73.50
20057;DHT22;10189;49.546;7.906;2023-03-11T08:23:41;0.70;74.50
20057;DHT22;10189;49.546;7.906;2023-03-11T08:26:10;0.90;72.60
20057;DHT22;10189;49.546;7.906;2023-03-11T08:28:38;0.80;72.60
20057;DHT22;10189;49.546;7.906;2023-03-11T08:31:16;0.90;71.60
20057;DHT22;10189;49.546;7.906;2023-03-11T08:33:49;1.00;70.20
20057;DHT22;10189;49.546;7.906;2023-03-11T08:36:17;1.00;69.40
20057;DHT22;10189;49.546;7.906;2023-03-11T08:38:44;1.00;69.90
20057;DHT22;10189;49.546;7.906;2023-03-11T08:41:10;1.10;69.20
20057;DHT22;10189;49.546;7.906;2023-03-11T08:43:36;1.20;69.80
20057;DHT22;10189;49.546;7.906;2023-03-11T08:46:04;1.40;68.50
20057;DHT22;10189;49.546;7.906;2023-03-11T08:48:35;1.40;70.70
20057;DHT22;10189;49.546;7.906;2023-03-11T08:51:07;1.60;69.90
20057;DHT22;10189;49.546;7.906;2023-03-11T08:53:34;1.70;65.60
20057;DHT22;10189;49.546;7.906;2023-03-11T08:56:02;1.70;67.30
20057;DHT22;10189;49.546;7.906;2023-03-11T08:58:28;1.90;68.20
20057;DHT22;10189;49.546;7.906;2023-03-11T09:00:54;2.10;64.70
20057;DHT22;10189;49.546;7.906;2023-03-11T09:03:22;2.00;62.90
20057;DHT22;10189;49.546;7.906;2023-03-11T09:05:48;2.00;65.70
20057;DHT22;10189;49.546;7.906;2023-03-11T09:08:20;2.10;62.70
20057;DHT22;10189;49.546;7.906;2023-03-11T09:10:46;2.00;62.80
20057;DHT22;10189;49.546;7.906;2023-03-11T09:13:12;1.90;63.10
20057;DHT22;10189;49.546;7.906;2023-03-11T09:15:38;1.90;63.50
20057;DHT22;10189;49.546;7.906;2023-03-11T09:18:04;2.20;63.90
20057;DHT22;10189;49.546;7.906;2023-03-11T09:20:30;2.50;62.60
20057;DHT22;10189;49.546;7.906;2023-03-11T09:22:56;2.80;61.10
20057;DHT22;10189;49.546;7.906;2023-03-11T09:25:22;3.00;61.40
20057;DHT22;10189;49.546;7.906;2023-03-11T09:27:48;3.20;61.80
20057;DHT22;10189;49.546;7.906;2023-03-11T09:30:14;3.30;59.10
20057;DHT22;10189;49.546;7.906;2023-03-11T09:32:40;2.90;52.10
20057;DHT22;10189;49.546;7.906;2023-03-11T09:35:05;2.40;53.20
20057;DHT22;10189;49.546;7.906;2023-03-11T09:37:31;2.10;51.80
20057;DHT22;10189;49.546;7.906;2023-03-11T09:39:57;2.00;52.90
20057;DHT22;10189;49.546;7.906;2023-03-11T09:42:39;2.00;53.90
20057;DHT22;10189;49.546;7.906;2023-03-11T09:45:27;2.20;54.50
20057;DHT22;10189;49.546;7.906;2023-03-11T09:48:26;2.40;50.60
20057;DHT22;10189;49.546;7.906;2023-03-11T09:51:25;2.40;50.60
20057;DHT22;10189;49.546;7.906;2023-03-11T09:54:02;2.50;52.70
20057;DHT22;10189;49.546;7.906;2023-03-11T09:56:30;2.80;52.20
20057;DHT22;10189;49.546;7.906;2023-03-11T09:59:14;2.90;52.50
20057;DHT22;10189;49.546;7.906;2023-03-11T10:01:48;3.20;49.20
20057;DHT22;10189;49.546;7.906;2023-03-11T10:04:20;3.20;49.30
20057;DHT22;10189;49.546;7.906;2023-03-11T10:06:55;3.60;48.70
20057;DHT22;10189;49.546;7.906;2023-03-11T10:09:48;3.80;48.70
20057;DHT22;10189;49.546;7.906;2023-03-11T10:12:43;3.80;51.00
20057;DHT22;10189;49.546;7.906;2023-03-11T10:21:52;3.10;53.50
20057;DHT22;10189;49.546;7.906;2023-03-11T10:25:04;3.00;52.10
20057;DHT22;10189;49.546;7.906;2023-03-11T10:35:55;2.40;51.70
20057;DHT22;10189;49.546;7.906;2023-03-11T10:38:39;2.50;50.10
20057;DHT22;10189;49.546;7.906;2023-03-11T10:46:29;3.60;50.80
20057;DHT22;10189;49.546;7.906;2023-03-11T10:48:55;3.70;46.00
20057;DHT22;10189;49.546;7.906;2023-03-11T10:51:24;4.00;47.40
20057;DHT22;10189;49.546;7.906;2023-03-11T10:53:57;4.30;47.30
20057;DHT22;10189;49.546;7.906;2023-03-11T10:59:02;4.00;48.50
20057;DHT22;10189;49.546;7.906;2023-03-11T11:01:30;4.00;49.50
20057;DHT22;10189;49.546;7.906;2023-03-11T11:03:58;3.90;50.50
20057;DHT22;10189;49.546;7.906;2023-03-11T11:06:34;3.70;50.70
20057;DHT22;10189;49.546;7.906;2023-03-11T11:09:22;3.10;49.60
20057;DHT22;10189;49.546;7.906;2023-03-11T11:12:15;2.80;49.50
20057;DHT22;10189;49.546;7.906;2023-03-11T11:19:45;2.90;49.60
20057;DHT22;10189;49.546;7.906;2023-03-11T11:22:20;3.30;49.30
20057;DHT22;10189;49.546;7.906;2023-03-11T11:24:49;3.40;49.20
20057;DHT22;10189;49.546;7.906;2023-03-11T11:27:20;3.50;48.40
20057;DHT22;10189;49.546;7.906;2023-03-11T11:30:12;4.00;51.10
20057;DHT22;10189;49.546;7.906;2023-03-11T11:32:40;4.50;48.70
20057;DHT22;10189;49.546;7.906;2023-03-11T11:35:11;4.90;45.90
20057;DHT22;10189;49.546;7.906;2023-03-11T11:37:45;4.50;45.70
20057;DHT22;10189;49.546;7.906;2023-03-11T11:42:49;5.20;47.40
20057;DHT22;10189;49.546;7.906;2023-03-11T11:45:28;5.20;47.40
20057;DHT22;10189;49.546;7.906;2023-03-11T11:48:56;4.90;48.10
20057;DHT22;10189;49.546;7.906;2023-03-11T11:51:20;4.80;49.40
20057;DHT22;10189;49.546;7.906;2023-03-11T11:54:02;4.30;48.30
20057;DHT22;10189;49.546;7.906;2023-03-11T11:56:32;3.90;48.70
20057;DHT22;10189;49.546;7.906;2023-03-11T11:58:59;3.80;48.20
20057;DHT22;10189;49.546;7.906;2023-03-11T12:01:48;3.70;50.00
20057;DHT22;10189;49.546;7.906;2023-03-11T12:07:32;3.90;49.40
20057;DHT22;10189;49.546;7.906;2023-03-11T12:10:31;4.00;47.70
20057;DHT22;10189;49.546;7.906;2023-03-11T12:19:18;3.90;47.30
20057;DHT22;10189;49.546;7.906;2023-03-11T12:25:21;3.90;47.60
20057;DHT22;10189;49.546;7.906;2023-03-11T12:31:06;3.60;49.50
20057;DHT22;10189;49.546;7.906;2023-03-11T12:33:57;3.50;50.50
20057;DHT22;10189;49.546;7.906;2023-03-11T12:39:06;3.80;48.20
20057;DHT22;10189;49.546;7.906;2023-03-11T12:41:44;3.90;48.90
20057;DHT22;10189;49.546;7.906;2023-03-11T12:44:27;3.90;48.20
20057;DHT22;10189;49.546;7.906;2023-03-11T12:49:28;3.30;48.10
20057;DHT22;10189;49.546;7.906;2023-03-11T12:52:17;3.10;47.50
20057;DHT22;10189;49.546;7.906;2023-03-11T13:08:47;4.90;46.00
20057;DHT22;10189;49.546;7.906;2023-03-11T13:11:43;5.30;45.30
20057;DHT22;10189;49.546;7.906;2023-03-11T13:16:41;5.50;44.30
20057;DHT22;10189;49.546;7.906;2023-03-11T13:21:59;5.40;43.70
20057;DHT22;10189;49.546;7.906;2023-03-11T13:32:52;5.10;45.20
20057;DHT22;10189;49.546;7.906;2023-03-11T13:41:19;5.30;46.80
20057;DHT22;10189;49.546;7.906;2023-03-11T13:43:51;5.20;47.30
20057;DHT22;10189;49.546;7.906;2023-03-11T13:46:27;5.30;46.10
20057;DHT22;10189;49.546;7.906;2023-03-11T13:51:48;5.20;44.30
20057;DHT22;10189;49.546;7.906;2023-03-11T13:56:59;5.00;44.90
20057;DHT22;10189;49.546;7.906;2023-03-11T13:59:32;4.80;45.90
20057;DHT22;10189;49.546;7.906;2023-03-11T14:02:17;4.90;46.90
20057;DHT22;10189;49.546;7.906;2023-03-11T14:04:54;4.90;47.80
20057;DHT22;10189;49.546;7.906;2023-03-11T14:09:51;4.90;49.00
20057;DHT22;10189;49.546;7.906;2023-03-11T14:12:31;4.60;48.30
20057;DHT22;10189;49.546;7.906;2023-03-11T14:15:04;4.60;47.70
20057;DHT22;10189;49.546;7.906;2023-03-11T14:17:32;4.10;47.30
20057;DHT22;10189;49.546;7.906;2023-03-11T14:22:46;4.00;48.60
20057;DHT22;10189;49.546;7.906;2023-03-11T14:25:24;3.80;48.20
20057;DHT22;10189;49.546;7.906;2023-03-11T14:28:00;3.90;48.50
20057;DHT22;10189;49.546;7.906;2023-03-11T14:30:30;3.90;49.30
20057;DHT22;10189;49.546;7.906;2023-03-11T14:33:17;3.90;50.10
20057;DHT22;10189;49.546;7.906;2023-03-11T14:35:53;3.80;49.70
20057;DHT22;10189;49.546;7.906;2023-03-11T14:38:27;3.90;48.80
20057;DHT22;10189;49.546;7.906;2023-03-11T14:40:57;4.00;48.90
20057;DHT22;10189;49.546;7.906;2023-03-11T14:43:31;3.80;49.30
20057;DHT22;10189;49.546;7.906;2023-03-11T14:46:00;3.60;50.00
20057;DHT22;10189;49.546;7.906;2023-03-11T14:48:35;3.60;50.00
20057;DHT22;10189;49.546;7.906;2023-03-11T14:51:07;3.70;50.30
20057;DHT22;10189;49.546;7.906;2023-03-11T14:53:56;3.60;49.20
20057;DHT22;10189;49.546;7.906;2023-03-11T14:56:27;3.30;51.20
20057;DHT22;10189;49.546;7.906;2023-03-11T14:59:14;3.40;50.90
20057;DHT22;10189;49.546;7.906;2023-03-11T15:01:59;3.40;50.70
20057;DHT22;10189;49.546;7.906;2023-03-11T15:04:48;3.30;52.00
20057;DHT22;10189;49.546;7.906;2023-03-11T15:07:18;3.30;50.60
20057;DHT22;10189;49.546;7.906;2023-03-11T15:09:45;3.10;50.20
20057;DHT22;10189;49.546;7.906;2023-03-11T15:12:32;3.30;51.60
20057;DHT22;10189;49.546;7.906;2023-03-11T15:14:59;3.60;51.70
20057;DHT22;10189;49.546;7.906;2023-03-11T15:17:27;3.80;51.40
20057;DHT22;10189;49.546;7.906;2023-03-11T15:19:57;3.80;50.90
20057;DHT22;10189;49.546;7.906;2023-03-11T15:22:24;3.80;51.50
20057;DHT22;10189;49.546;7.906;2023-03-11T15:24:56;3.70;50.40
20057;DHT22;10189;49.546;7.906;2023-03-11T15:29:55;3.40;52.50
20057;DHT22;10189;49.546;7.906;2023-03-11T15:35:24;3.40;51.60
20057;DHT22;10189;49.546;7.906;2023-03-11T15:38:21;3.40;52.20
20057;DHT22;10189;49.546;7.906;2023-03-11T15:40:55;3.40;50.70
20057;DHT22;10189;49.546;7.906;2023-03-11T15:43:48;3.40;51.10
20057;DHT22;10189;49.546;7.906;2023-03-11T15:46:13;3.40;52.00
20057;DHT22;10189;49.546;7.906;2023-03-11T15:48:41;3.40;51.60
20057;DHT22;10189;49.546;7.906;2023-03-11T15:51:17;3.30;51.80
20057;DHT22;10189;49.546;7.906;2023-03-11T15:53:44;3.40;52.10
20057;DHT22;10189;49.546;7.906;2023-03-11T15:56:14;3.20;53.20
20057;DHT22;10189;49.546;7.906;2023-03-11T15:58:47;3.30;54.70
20057;DHT22;10189;49.546;7.906;2023-03-11T16:01:13;3.40;53.20
20057;DHT22;10189;49.546;7.906;2023-03-11T16:03:38;3.30;53.10
20057;DHT22;10189;49.546;7.906;2023-03-11T16:06:05;3.40;52.30
20057;DHT22;10189;49.546;7.906;2023-03-11T16:08:31;3.30;51.30
20057;DHT22;10189;49.546;7.906;2023-03-11T16:10:57;3.30;51.50
20057;DHT22;10189;49.546;7.906;2023-03-11T16:13:23;3.20;52.40
20057;DHT22;10189;49.546;7.906;2023-03-11T16:15:49;3.00;52.90
20057;DHT22;10189;49.546;7.906;2023-03-11T16:18:15;2.90;53.20
20057;DHT22;10189;49.546;7.906;2023-03-11T16:20:44;2.70;53.70
20057;DHT22;10189;49.546;7.906;2023-03-11T16:23:18;2.50;53.20
20057;DHT22;10189;49.546;7.906;2023-03-11T16:25:57;2.40;54.40
20057;DHT22;10189;49.546;7.906;2023-03-11T16:28:25;2.30;54.80
20057;DHT22;10189;49.546;7.906;2023-03-11T16:30:51;2.20;54.40
20057;DHT22;10189;49.546;7.906;2023-03-11T16:33:17;2.10;55.40
20057;DHT22;10189;49.546;7.906;2023-03-11T16:35:43;2.00;56.40
20057;DHT22;10189;49.546;7.906;2023-03-11T16:38:10;1.90;57.40
20057;DHT22;10189;49.546;7.906;2023-03-11T16:40:36;1.70;58.50
20057;DHT22;10189;49.546;7.906;2023-03-11T16:43:10;1.60;59.50
20057;DHT22;10189;49.546;7.906;2023-03-11T16:45:38;1.50;59.70
20057;DHT22;10189;49.546;7.906;2023-03-11T16:48:04;1.40;60.80
20057;DHT22;10189;49.546;7.906;2023-03-11T16:50:32;1.30;62.20
20057;DHT22;10189;49.546;7.906;2023-03-11T16:52:58;1.20;61.90
20057;DHT22;10189;49.546;7.906;2023-03-11T16:55:25;1.10;62.90
20057;DHT22;10189;49.546;7.906;2023-03-11T16:57:52;1.10;63.10
20057;DHT22;10189;49.546;7.906;2023-03-11T17:00:19;1.00;63.30
20057;DHT22;10189;49.546;7.906;2023-03-11T17:02:45;0.90;65.20
20057;DHT22;10189;49.546;7.906;2023-03-11T17:05:11;0.80;66.20
20057;DHT22;10189;49.546;7.906;2023-03-11T17:07:38;0.60;66.40
20057;DHT22;10189;49.546;7.906;2023-03-11T17:10:04;0.50;67.20
20057;DHT22;10189;49.546;7.906;2023-03-11T17:12:31;0.40;67.20
20057;DHT22;10189;49.546;7.906;2023-03-11T17:14:57;0.30;67.00
20057;DHT22;10189;49.546;7.906;2023-03-11T17:17:23;0.20;65.90
20057;DHT22;10189;49.546;7.906;2023-03-11T17:19:49;0.10;66.60
20057;DHT22;10189;49.546;7.906;2023-03-11T17:22:15;0.00;68.80
20057;DHT22;10189;49.546;7.906;2023-03-11T17:24:41;-0.10;69.90
20057;DHT22;10189;49.546;7.906;2023-03-11T17:27:07;-0.20;70.80
20057;DHT22;10189;49.546;7.906;2023-03-11T17:29:33;-0.40;71.80
20057;DHT22;10189;49.546;7.906;2023-03-11T17:32:00;-0.50;73.30
20057;DHT22;10189;49.546;7.906;2023-03-11T17:34:27;-0.70;74.00
20057;DHT22;10189;49.546;7.906;2023-03-11T17:36:53;-0.80;74.60
20057;DHT22;10189;49.546;7.906;2023-03-11T17:39:20;-0.90;74.90
20057;DHT22;10189;49.546;7.906;2023-03-11T17:41:46;-1.00;75.60
20057;DHT22;10189;49.546;7.906;2023-03-11T17:44:13;-1.10;75.70
20057;DHT22;10189;49.546;7.906;2023-03-11T17:46:39;-1.20;76.10
20057;DHT22;10189;49.546;7.906;2023-03-11T17:49:06;-1.30;77.10